Etusivu
METAR-TAF:

METAR-TAF

Lentoasemat :

Sindal, Tanska

Leveyspiiri: 57-30N, Pituuspiiri: 010-13E, korkeus merenpinnasta: 28 m

Tämänhetkinen sää

Tämä raportti tehtiin 5 tuntia ja 14 minuuttia sitten, kello 11.50 UTC
Tuuli 13 kn pohjoisesta, vaihdellen pohjoisen/luoteen ja koillisen välillä
Lämpötila 5°C
Kosteus 45%
Ilmanpaine 1029 hPa
Näkyvyys 10 km tai enemmän
Muutamia pilviä 4500 ft:n korkeudessa

METAR: EKSN 301150Z 01013KT 340V050 9999 FEW045 05/M06 Q1029

Aika: 19:04 (17:04 UTC)

Sääennuste

Tämä raportti tehtiin 8 tuntia ja 10 minuuttia sitten, kello 08.54 UTC
Ennuste voimassa 30. päivästä klo 09 UTC - 30. päivään klo 15 UTC
Tuuli 12 kn koillisesta
Näkyvyys 10 km tai enemmän
ei pilviä alle 1500 m:ssä eikä cumulonimbus-pilviä
Ajoittain
30. päivästä klo 09 UTC - 30. päivään klo 15 UTC
Tuuli 15 kn pohjoisesta/koillisesta puuskistuen 25 kn:hen

TAF: EKSN 300854Z 3009/3015 04012KT CAVOK TEMPO 3009/3015 03015G25KT

Säähavainnot ja -ennusteet yli 4000 lentoasemalta (METAR- ja TAF-raportit).

Käytössä olevat sääasemat on merkitty karttaan keltaisilla ja punaisilla pisteillä.

Aseta hiiri pisteen päälle nähdäksesi sääaseman nimen.

Klikkaa sitten nähdäksesi säähavainnot ja -ennusteet.

Kartan vaihtaminen: klikkaa mustalla rastilla varustettuja vihreitä pisteitä, niin voit zoomata sisään; viivalla varustettua vihreää pistettä, niin voit zoomata ulos tai vihreitä nuolia, niin pääset viereisille kartoille.


METAR-TAF: